Stewiacke, Canada
Current Conditions -  °F | °C
As of 12:00 PM on Friday 31 Oct 2014 (Local Time) from CYHZ Reporting Station
Few Clouds Few Clouds  
Wind Chill: 50°   Ceiling: Unl
Heat Index: 50°   Visibility: 15mi
Dew Point: 32°   Wind: 6mph
Humidity: 50%   Direction: 10°N
Pressure: 30.06"   Gusts: NA
Location:  45.13°N, 63.35°W
Report Text: CYHZ 311500Z 01005KT 340V080 15SM FEW025 FEW060 10/M00 A3006 RMK SC1SC1 SLP183
Loading
Personal Weather Stations






























Interactive Weather Map
Tropical Storm Tracking
New forecast layout! Learn more

10-Day Weather Forecast

Advertisements
Track Severe Weather on mobile